createdAt,value
2023-07-17T00:00:46.888Z,17.16
2023-07-17T00:03:16.288Z,17.04
2023-07-17T00:05:45.343Z,16.88
2023-07-17T00:08:14.186Z,16.83
2023-07-17T00:10:42.979Z,16.91
2023-07-17T00:13:11.801Z,16.97
2023-07-17T00:15:40.663Z,17.05
2023-07-17T00:18:11.340Z,16.85
2023-07-17T00:20:40.185Z,16.85
2023-07-17T00:23:09.370Z,16.82
2023-07-17T00:25:38.329Z,16.98
2023-07-17T00:28:07.186Z,16.74
2023-07-17T00:30:39.679Z,16.59
2023-07-17T00:33:10.466Z,16.78
2023-07-17T00:35:41.920Z,16.81
2023-07-17T00:38:12.020Z,16.67
2023-07-17T00:40:42.916Z,16.79
2023-07-17T00:43:13.084Z,16.69
2023-07-17T00:45:43.889Z,16.77
2023-07-17T00:48:14.109Z,16.67
2023-07-17T00:50:43.102Z,16.66
2023-07-17T00:53:12.152Z,16.65
2023-07-17T00:55:41.950Z,16.70
2023-07-17T00:58:11.153Z,16.61
2023-07-17T01:00:40.398Z,16.57
2023-07-17T01:03:09.458Z,16.56
2023-07-17T01:05:39.648Z,16.58
2023-07-17T01:08:08.520Z,16.67
2023-07-17T01:10:37.322Z,16.63
2023-07-17T01:13:06.275Z,16.54
2023-07-17T01:15:37.240Z,16.53
2023-07-17T01:18:06.189Z,16.56
2023-07-17T01:20:35.224Z,16.40
2023-07-17T01:23:06.045Z,16.70
2023-07-17T01:25:35.524Z,16.66
2023-07-17T01:28:04.989Z,16.48
2023-07-17T01:30:34.042Z,16.47
2023-07-17T01:33:02.922Z,16.41
2023-07-17T01:35:32.654Z,16.41
2023-07-17T01:38:01.627Z,16.48
2023-07-17T01:40:31.822Z,16.36
2023-07-17T01:43:01.925Z,16.48
2023-07-17T01:45:30.667Z,15.20
2023-07-17T01:47:59.562Z,16.23
2023-07-17T01:50:28.380Z,16.32
2023-07-17T01:52:57.280Z,16.37
2023-07-17T01:55:26.076Z,16.37
2023-07-17T01:57:59.823Z,16.64
2023-07-17T02:00:28.602Z,16.41
2023-07-17T02:02:57.375Z,16.27
2023-07-17T02:05:26.307Z,16.29
2023-07-17T02:07:55.068Z,16.27
2023-07-17T02:10:23.900Z,16.33
2023-07-17T02:12:52.750Z,16.14
2023-07-17T02:15:23.661Z,16.08
2023-07-17T02:17:52.753Z,16.25
2023-07-17T02:20:21.719Z,16.15
2023-07-17T02:22:50.699Z,15.97
2023-07-17T02:25:20.262Z,16.22
2023-07-17T02:27:49.472Z,16.22
2023-07-17T02:30:18.296Z,15.19
2023-07-17T02:32:50.909Z,16.02
2023-07-17T02:35:19.891Z,16.11
2023-07-17T02:37:49.519Z,16.27
2023-07-17T02:40:20.104Z,16.16
2023-07-17T02:42:48.889Z,16.11
2023-07-17T02:45:17.838Z,16.11
2023-07-17T02:47:46.638Z,16.08
2023-07-17T02:50:16.862Z,16.18
2023-07-17T02:52:48.016Z,16.04
2023-07-17T02:55:16.779Z,15.95
2023-07-17T02:57:45.666Z,16.15
2023-07-17T03:00:18.489Z,16.24
2023-07-17T03:02:49.936Z,16.18
2023-07-17T03:05:20.430Z,15.98
2023-07-17T03:07:49.336Z,16.07
2023-07-17T03:10:18.924Z,16.15
2023-07-17T03:12:47.679Z,16.10
2023-07-17T03:15:21.210Z,16.18
2023-07-17T03:17:50.105Z,16.14
2023-07-17T03:20:20.843Z,16.12
2023-07-17T03:22:50.502Z,15.13
2023-07-17T03:25:21.507Z,15.79
2023-07-17T03:27:50.313Z,16.08
2023-07-17T03:30:19.439Z,15.91
2023-07-17T03:32:48.361Z,16.12
2023-07-17T03:35:17.347Z,15.97
2023-07-17T03:37:47.786Z,15.87
2023-07-17T03:40:16.834Z,16.00
2023-07-17T03:42:45.612Z,15.91
2023-07-17T03:45:14.675Z,15.92
2023-07-17T03:47:44.820Z,15.93
2023-07-17T03:50:14.172Z,16.07
2023-07-17T03:52:44.158Z,16.03
2023-07-17T03:55:14.771Z,15.78
2023-07-17T03:57:44.194Z,14.97
2023-07-17T04:00:15.376Z,15.75
2023-07-17T04:02:46.655Z,15.90
2023-07-17T04:05:26.791Z,15.73
2023-07-17T04:07:55.719Z,15.79
2023-07-17T04:10:28.462Z,15.73
2023-07-17T04:12:57.948Z,15.70
2023-07-17T04:15:30.359Z,15.99
2023-07-17T04:18:00.217Z,15.82
2023-07-17T04:20:29.171Z,15.86
2023-07-17T04:22:58.353Z,16.05
2023-07-17T04:25:28.556Z,15.79
2023-07-17T04:27:57.783Z,15.81
2023-07-17T04:34:52.485Z,15.69
2023-07-17T04:37:21.413Z,15.72
2023-07-17T04:39:50.162Z,15.60
2023-07-17T04:42:20.439Z,15.56
2023-07-17T04:44:49.173Z,15.40
2023-07-17T04:47:18.477Z,15.74
2023-07-17T04:49:47.337Z,15.54
2023-07-17T04:52:16.132Z,15.63
2023-07-17T04:54:44.855Z,15.74
2023-07-17T04:57:13.722Z,15.85
2023-07-17T04:59:45.452Z,15.88
2023-07-17T05:02:16.149Z,15.73
2023-07-17T05:04:44.872Z,15.76
2023-07-17T05:07:13.875Z,15.72
2023-07-17T05:09:42.674Z,15.72
2023-07-17T05:12:12.197Z,15.64
2023-07-17T05:14:44.817Z,15.76
2023-07-17T05:17:13.938Z,15.97
2023-07-17T05:19:43.122Z,15.92
2023-07-17T05:22:11.875Z,15.96
2023-07-17T05:24:42.192Z,15.92
2023-07-17T05:27:11.750Z,15.86
2023-07-17T05:29:40.567Z,15.79
2023-07-17T05:32:12.904Z,16.04
2023-07-17T05:34:44.150Z,16.06
2023-07-17T05:37:14.376Z,16.07
2023-07-17T05:39:43.299Z,15.98
2023-07-17T05:42:12.349Z,15.98
2023-07-17T05:44:41.114Z,16.09
2023-07-17T05:47:10.275Z,16.09
2023-07-17T05:49:40.481Z,15.98
2023-07-17T05:52:11.274Z,16.17
2023-07-17T05:54:40.238Z,16.15
2023-07-17T05:57:11.132Z,16.41
2023-07-17T05:59:40.155Z,16.41
2023-07-17T06:02:08.876Z,16.48
2023-07-17T06:04:38.059Z,16.76
2023-07-17T06:07:08.415Z,16.82
2023-07-17T06:09:39.804Z,17.04
2023-07-17T06:12:09.279Z,17.34
2023-07-17T06:14:38.073Z,17.55
2023-07-17T06:17:07.441Z,17.70
2023-07-17T06:19:36.302Z,17.78
2023-07-17T06:22:05.428Z,17.64
2023-07-17T06:24:35.694Z,17.55
2023-07-17T06:27:05.173Z,17.74
2023-07-17T06:29:33.982Z,17.66
2023-07-17T06:32:02.943Z,17.81
2023-07-17T06:34:31.798Z,17.88
2023-07-17T06:37:03.385Z,18.04
2023-07-17T06:39:32.441Z,18.33
2023-07-17T06:42:02.562Z,18.40
2023-07-17T06:44:33.002Z,18.40
2023-07-17T06:47:03.949Z,18.37
2023-07-17T06:49:32.771Z,18.70
2023-07-17T06:52:01.535Z,18.77
2023-07-17T06:54:34.672Z,18.59
2023-07-17T06:57:13.853Z,18.43
2023-07-17T06:59:42.661Z,18.46
2023-07-17T07:02:11.439Z,18.80
2023-07-17T07:04:40.276Z,18.75
2023-07-17T07:07:11.236Z,19.10
2023-07-17T07:09:40.012Z,19.04
2023-07-17T07:12:10.054Z,19.12
2023-07-17T07:14:40.258Z,18.37
2023-07-17T07:17:09.691Z,19.10
2023-07-17T07:19:38.482Z,19.13
2023-07-17T07:22:07.706Z,19.05
2023-07-17T07:24:36.469Z,19.10
2023-07-17T07:27:07.916Z,19.04
2023-07-17T07:29:36.708Z,19.43
2023-07-17T07:32:11.159Z,19.06
2023-07-17T07:34:40.484Z,19.23
2023-07-17T07:37:09.276Z,19.18
2023-07-17T07:39:38.034Z,19.43
2023-07-17T07:42:07.862Z,19.43
2023-07-17T07:44:36.687Z,19.55
2023-07-17T07:47:07.593Z,19.68
2023-07-17T07:49:36.465Z,19.73
2023-07-17T07:52:05.465Z,19.48
2023-07-17T07:54:34.403Z,19.38
2023-07-17T07:57:06.161Z,19.53
2023-07-17T07:59:37.683Z,19.38
2023-07-17T08:02:14.328Z,19.43
2023-07-17T08:04:43.500Z,19.54
2023-07-17T08:07:12.748Z,19.74
2023-07-17T08:09:41.487Z,19.73
2023-07-17T08:12:10.746Z,19.82
2023-07-17T08:14:39.506Z,20.01
2023-07-17T08:17:08.356Z,20.16
2023-07-17T08:19:38.526Z,20.41
2023-07-17T08:22:07.636Z,20.84
2023-07-17T08:24:36.423Z,20.73
2023-07-17T08:27:05.613Z,20.61
2023-07-17T08:29:36.734Z,20.81
2023-07-17T08:32:08.916Z,20.66
2023-07-17T08:34:39.097Z,20.68
2023-07-17T08:37:07.970Z,20.31
2023-07-17T08:39:36.761Z,20.78
2023-07-17T08:42:05.953Z,21.00
2023-07-17T08:44:37.826Z,21.16
2023-07-17T08:47:09.357Z,21.44
2023-07-17T08:49:41.110Z,21.57
2023-07-17T08:52:13.287Z,22.12
2023-07-17T08:54:42.078Z,21.77
2023-07-17T08:57:11.493Z,21.43
2023-07-17T08:59:40.563Z,21.21
2023-07-17T09:02:09.922Z,20.96
2023-07-17T09:04:42.365Z,20.87
2023-07-17T09:07:11.257Z,21.06
2023-07-17T09:09:39.971Z,21.48
2023-07-17T09:12:10.124Z,21.45
2023-07-17T09:14:40.649Z,21.08
2023-07-17T09:17:09.769Z,21.26
2023-07-17T09:19:38.841Z,21.27
2023-07-17T09:22:11.059Z,21.05
2023-07-17T09:24:42.336Z,21.00
2023-07-17T09:27:11.121Z,20.69
2023-07-17T09:29:42.921Z,20.39
2023-07-17T09:32:20.673Z,20.24
2023-07-17T09:34:53.954Z,20.24
2023-07-17T09:37:32.930Z,19.99
2023-07-17T09:40:02.260Z,19.97
2023-07-17T09:42:31.656Z,19.26
2023-07-17T09:45:01.938Z,20.02
2023-07-17T09:47:31.980Z,20.73
2023-07-17T09:50:04.662Z,21.01
2023-07-17T09:52:34.998Z,21.25
2023-07-17T09:55:03.982Z,21.28
2023-07-17T09:57:36.711Z,21.44
2023-07-17T10:00:12.131Z,21.15
2023-07-17T10:02:42.472Z,20.76
2023-07-17T10:05:11.237Z,20.67
2023-07-17T10:07:46.778Z,20.45
2023-07-17T10:10:16.188Z,20.34
2023-07-17T10:12:45.616Z,20.29
2023-07-17T10:15:16.252Z,20.23
2023-07-17T10:17:45.033Z,20.30
2023-07-17T10:20:16.117Z,20.51
2023-07-17T10:22:47.415Z,20.89
2023-07-17T10:25:28.563Z,20.62
2023-07-17T10:28:01.242Z,20.54
2023-07-17T10:30:32.360Z,20.41
2023-07-17T10:33:24.104Z,20.16
2023-07-17T10:35:56.312Z,20.10
2023-07-17T10:38:28.757Z,20.14
2023-07-17T10:41:06.050Z,19.78
2023-07-17T10:43:36.127Z,19.92
2023-07-17T10:46:10.266Z,19.78
2023-07-17T10:48:39.215Z,19.95
2023-07-17T10:51:08.006Z,19.77
2023-07-17T10:53:38.180Z,20.06
2023-07-17T10:56:08.514Z,20.38
2023-07-17T10:58:37.283Z,20.12
2023-07-17T11:01:07.110Z,19.72
2023-07-17T11:03:35.902Z,19.40
2023-07-17T11:06:06.952Z,19.38
2023-07-17T11:08:37.038Z,19.30
2023-07-17T11:11:05.899Z,19.29
2023-07-17T11:13:34.679Z,19.04
2023-07-17T11:16:11.446Z,18.96
2023-07-17T11:18:47.166Z,18.75
2023-07-17T11:21:20.068Z,18.49
2023-07-17T11:23:52.258Z,18.32
2023-07-17T11:26:23.782Z,18.46
2023-07-17T11:28:54.853Z,18.28
2023-07-17T11:31:26.259Z,18.72
2023-07-17T11:34:00.079Z,18.92
2023-07-17T11:36:31.221Z,19.07
2023-07-17T11:39:10.476Z,19.16
2023-07-17T11:41:48.268Z,19.08
2023-07-17T11:44:18.284Z,19.28
2023-07-17T11:46:47.144Z,18.93
2023-07-17T11:49:18.082Z,18.84
2023-07-17T11:51:47.670Z,18.71
2023-07-17T11:54:17.864Z,18.51
2023-07-17T11:56:47.585Z,18.63
2023-07-17T11:59:20.552Z,18.92
2023-07-17T12:01:52.289Z,19.45
2023-07-17T12:04:23.485Z,19.83
2023-07-17T12:06:54.077Z,19.84
2023-07-17T12:09:24.678Z,20.13
2023-07-17T12:11:55.681Z,19.97
2023-07-17T12:14:24.412Z,20.26
2023-07-17T12:16:53.193Z,20.37
2023-07-17T12:19:24.229Z,20.09
2023-07-17T12:21:55.168Z,19.84
2023-07-17T12:24:28.878Z,19.95
2023-07-17T12:26:57.720Z,20.17
2023-07-17T12:29:28.374Z,20.10
2023-07-17T12:31:57.360Z,19.94
2023-07-17T12:34:26.561Z,19.88
2023-07-17T12:36:55.403Z,20.07
2023-07-17T12:39:26.987Z,20.03
2023-07-17T12:41:57.286Z,19.77
2023-07-17T12:44:26.037Z,19.86
2023-07-17T12:46:54.859Z,20.12
2023-07-17T12:49:23.599Z,20.15
2023-07-17T12:51:52.412Z,20.35
2023-07-17T12:54:21.413Z,20.42
2023-07-17T12:56:50.175Z,20.48
2023-07-17T12:59:20.258Z,20.51
2023-07-17T13:01:49.986Z,20.32
2023-07-17T13:04:18.927Z,20.79
2023-07-17T13:06:48.089Z,20.56
2023-07-17T13:09:16.949Z,20.51
2023-07-17T13:11:47.906Z,20.44
2023-07-17T13:14:16.607Z,20.53
2023-07-17T13:16:46.905Z,20.52
2023-07-17T13:19:15.679Z,20.23
2023-07-17T13:21:44.466Z,20.55
2023-07-17T13:24:13.514Z,20.67
2023-07-17T13:26:42.330Z,21.12
2023-07-17T13:29:11.046Z,21.03
2023-07-17T13:31:39.961Z,21.18
2023-07-17T13:34:10.131Z,21.34
2023-07-17T13:36:38.916Z,21.33
2023-07-17T13:39:07.712Z,21.35
2023-07-17T13:41:47.694Z,21.05
2023-07-17T13:44:17.767Z,21.17
2023-07-17T13:46:48.492Z,20.80
2023-07-17T13:49:19.169Z,20.79
2023-07-17T13:51:49.178Z,20.92
2023-07-17T13:54:21.298Z,20.31
2023-07-17T13:59:24.674Z,20.97
2023-07-17T14:01:53.414Z,20.71
2023-07-17T14:04:23.610Z,20.59
2023-07-17T14:06:52.337Z,20.75
2023-07-17T14:09:21.181Z,20.77
2023-07-17T14:11:50.022Z,20.83
2023-07-17T14:14:18.766Z,20.74
2023-07-17T14:16:47.523Z,20.83
2023-07-17T14:19:19.073Z,20.78
2023-07-17T14:21:50.322Z,20.65
2023-07-17T14:24:19.423Z,20.71
2023-07-17T14:26:48.205Z,21.05
2023-07-17T14:29:19.628Z,20.89
2023-07-17T14:31:50.439Z,20.80
2023-07-17T14:34:19.255Z,20.93
2023-07-17T14:36:47.993Z,21.08
2023-07-17T14:39:18.105Z,21.03
2023-07-17T14:41:47.745Z,20.88
2023-07-17T14:44:18.779Z,20.82
2023-07-17T14:46:47.660Z,20.81
2023-07-17T14:49:16.441Z,21.11
2023-07-17T14:51:45.318Z,20.88
2023-07-17T14:54:14.711Z,20.95
2023-07-17T14:56:44.798Z,20.78
2023-07-17T14:59:13.508Z,20.93
2023-07-17T15:01:42.400Z,20.92
2023-07-17T15:04:11.183Z,21.21
2023-07-17T15:06:40.099Z,20.79
2023-07-17T15:09:08.864Z,21.02
2023-07-17T15:11:37.593Z,20.80
2023-07-17T15:14:21.085Z,20.85
2023-07-17T15:16:56.044Z,20.95
2023-07-17T15:19:24.967Z,20.93
2023-07-17T15:21:53.687Z,21.02
2023-07-17T15:24:22.627Z,21.07
2023-07-17T15:26:51.367Z,20.93
2023-07-17T15:29:21.417Z,20.89
2023-07-17T15:31:50.234Z,20.90
2023-07-17T15:34:19.152Z,20.73
2023-07-17T15:36:47.864Z,20.45
2023-07-17T15:39:16.777Z,20.56
2023-07-17T15:41:47.288Z,20.65
2023-07-17T15:44:16.055Z,20.57
2023-07-17T15:46:46.278Z,20.50
2023-07-17T15:49:15.106Z,20.48
2023-07-17T15:51:43.911Z,20.55
2023-07-17T15:54:13.226Z,20.71
2023-07-17T15:56:42.053Z,20.86
2023-07-17T15:59:10.865Z,20.76
2023-07-17T16:01:39.811Z,20.75
2023-07-17T16:04:10.081Z,20.86
2023-07-17T16:06:38.871Z,20.85
2023-07-17T16:09:09.215Z,20.65
2023-07-17T16:11:40.138Z,21.05
2023-07-17T16:14:09.252Z,20.97
2023-07-17T16:16:38.915Z,20.94
2023-07-17T16:19:09.330Z,20.85
2023-07-17T16:21:38.143Z,20.88
2023-07-17T16:24:08.639Z,21.16
2023-07-17T16:26:37.385Z,21.04
2023-07-17T16:29:06.547Z,20.90
2023-07-17T16:31:37.383Z,21.18
2023-07-17T16:34:07.471Z,21.18
2023-07-17T16:36:40.289Z,20.23
2023-07-17T16:39:09.156Z,20.78
2023-07-17T16:41:37.827Z,20.90
2023-07-17T16:44:06.595Z,20.78
2023-07-17T16:46:35.501Z,20.85
2023-07-17T16:49:04.305Z,20.79
2023-07-17T16:51:33.041Z,20.86
2023-07-17T16:54:03.540Z,21.01
2023-07-17T16:56:34.551Z,21.11
2023-07-17T16:59:05.142Z,20.80
2023-07-17T17:01:34.847Z,20.78
2023-07-17T17:04:04.640Z,20.66
2023-07-17T17:06:33.621Z,20.37
2023-07-17T17:09:16.383Z,20.12
2023-07-17T17:11:46.268Z,19.89
2023-07-17T17:14:17.166Z,19.81
2023-07-17T17:16:48.369Z,19.99
2023-07-17T17:19:17.980Z,19.97
2023-07-17T17:21:46.720Z,19.74
2023-07-17T17:24:16.819Z,19.93
2023-07-17T17:26:45.684Z,19.91
2023-07-17T17:29:14.465Z,20.05
2023-07-17T17:31:43.228Z,19.84
2023-07-17T17:34:12.407Z,19.69
2023-07-17T17:36:41.118Z,19.55
2023-07-17T17:39:11.136Z,19.47
2023-07-17T17:41:41.218Z,19.67
2023-07-17T17:44:12.174Z,19.70
2023-07-17T17:46:41.020Z,19.73
2023-07-17T17:49:09.838Z,19.43
2023-07-17T17:51:38.614Z,19.35
2023-07-17T17:54:07.952Z,18.51
2023-07-17T17:56:37.480Z,19.23
2023-07-17T17:59:08.097Z,19.67
2023-07-17T18:01:36.988Z,19.65
2023-07-17T18:04:06.021Z,19.75
2023-07-17T18:06:35.003Z,19.44
2023-07-17T18:09:04.534Z,19.31
2023-07-17T18:11:37.221Z,19.34
2023-07-17T18:14:11.638Z,19.23
2023-07-17T18:16:40.820Z,19.33
2023-07-17T18:19:10.128Z,19.11
2023-07-17T18:21:40.205Z,19.15
2023-07-17T18:24:09.089Z,19.08
2023-07-17T18:26:40.065Z,19.16
2023-07-17T18:29:10.175Z,19.30
2023-07-17T18:31:39.567Z,19.20
2023-07-17T18:34:08.442Z,19.08
2023-07-17T18:36:40.204Z,19.11
2023-07-17T18:39:08.989Z,18.93
2023-07-17T18:41:37.692Z,19.01
2023-07-17T18:44:07.497Z,18.89
2023-07-17T18:46:37.914Z,19.11
2023-07-17T18:49:06.775Z,18.85
2023-07-17T18:51:38.292Z,18.81
2023-07-17T18:54:07.961Z,18.98
2023-07-17T18:56:38.261Z,18.79
2023-07-17T18:59:15.679Z,18.80
2023-07-17T19:01:46.191Z,18.69
2023-07-17T19:04:15.028Z,18.63
2023-07-17T19:06:43.844Z,18.49
2023-07-17T19:09:13.476Z,18.40
2023-07-17T19:11:44.587Z,18.49
2023-07-17T19:14:13.760Z,18.37
2023-07-17T19:16:42.706Z,18.26
2023-07-17T19:19:12.914Z,18.23
2023-07-17T19:21:45.891Z,18.19
2023-07-17T19:24:14.818Z,18.13
2023-07-17T19:26:43.666Z,18.08
2023-07-17T19:29:12.409Z,18.08
2023-07-17T19:31:41.211Z,18.10
2023-07-17T19:34:10.434Z,18.01
2023-07-17T19:36:40.786Z,17.98
2023-07-17T19:39:09.628Z,17.87
2023-07-17T19:41:38.380Z,17.86
2023-07-17T19:44:07.397Z,18.09
2023-07-17T19:46:36.480Z,17.97
2023-07-17T19:49:06.513Z,17.89
2023-07-17T19:51:35.804Z,17.86
2023-07-17T19:54:06.059Z,17.83
2023-07-17T19:56:37.354Z,17.82
2023-07-17T19:59:06.012Z,17.67
2023-07-17T20:01:35.013Z,17.62
2023-07-17T20:04:03.892Z,17.58
2023-07-17T20:06:32.997Z,17.46
2023-07-17T20:09:01.806Z,17.60
2023-07-17T20:11:34.586Z,17.53
2023-07-17T20:14:03.379Z,17.49
2023-07-17T20:16:32.848Z,17.47
2023-07-17T20:19:02.106Z,17.39
2023-07-17T20:21:30.906Z,17.19
2023-07-17T20:23:59.667Z,17.37
2023-07-17T20:26:28.483Z,17.33
2023-07-17T20:28:58.668Z,17.29
2023-07-17T20:31:27.533Z,17.25
2023-07-17T20:33:56.384Z,17.27
2023-07-17T20:36:27.633Z,17.29
2023-07-17T20:38:56.376Z,17.25
2023-07-17T20:41:25.093Z,17.26
2023-07-17T20:43:53.844Z,17.26
2023-07-17T20:46:24.033Z,17.28
2023-07-17T20:48:52.795Z,17.33
2023-07-17T20:51:23.922Z,17.34
2023-07-17T20:53:53.364Z,17.27
2023-07-17T20:56:22.115Z,17.28
2023-07-17T20:58:52.610Z,17.44
2023-07-17T21:01:26.865Z,17.26
2023-07-17T21:03:59.079Z,17.35
2023-07-17T21:06:29.039Z,17.32
2023-07-17T21:08:58.721Z,17.26
2023-07-17T21:11:28.073Z,17.21
2023-07-17T21:13:58.267Z,17.23
2023-07-17T21:16:28.445Z,17.20
2023-07-17T21:18:57.381Z,17.22
2023-07-17T21:21:26.307Z,17.25
2023-07-17T21:23:55.188Z,17.29
2023-07-17T21:26:24.007Z,17.23
2023-07-17T21:28:59.264Z,17.25
2023-07-17T21:31:29.373Z,17.11
2023-07-17T21:33:58.125Z,17.16
2023-07-17T21:36:26.971Z,17.02
2023-07-17T21:38:56.192Z,16.38
2023-07-17T21:41:25.491Z,17.21
2023-07-17T21:43:54.238Z,17.24
2023-07-17T21:46:23.026Z,17.54
2023-07-17T21:48:55.573Z,17.32
2023-07-17T21:51:24.543Z,17.15
2023-07-17T21:53:53.368Z,17.18
2023-07-17T21:56:22.102Z,17.19
2023-07-17T21:58:53.188Z,17.08
2023-07-17T22:01:22.205Z,17.13
2023-07-17T22:03:51.308Z,17.05
2023-07-17T22:06:22.363Z,17.04
2023-07-17T22:08:51.360Z,17.16
2023-07-17T22:11:20.557Z,17.20
2023-07-17T22:13:49.713Z,17.08
2023-07-17T22:16:18.639Z,17.07
2023-07-17T22:18:47.389Z,16.69
2023-07-17T22:21:19.874Z,17.06
2023-07-17T22:23:52.531Z,16.91
2023-07-17T22:26:21.207Z,17.00
2023-07-17T22:28:49.980Z,16.94
2023-07-17T22:31:19.021Z,17.02
2023-07-17T22:33:47.948Z,17.02
2023-07-17T22:36:16.757Z,17.01
2023-07-17T22:38:45.597Z,16.80
2023-07-17T22:41:16.086Z,16.83
2023-07-17T22:43:45.022Z,16.99
2023-07-17T22:46:13.845Z,17.04
2023-07-17T22:48:42.666Z,16.99
2023-07-17T22:51:11.405Z,17.02
2023-07-17T22:53:41.291Z,17.12
2023-07-17T22:56:10.415Z,16.97
2023-07-17T22:58:40.617Z,16.93
2023-07-17T23:01:09.392Z,17.05
2023-07-17T23:03:38.234Z,17.00
2023-07-17T23:06:07.102Z,16.83
2023-07-17T23:08:35.878Z,16.85
2023-07-17T23:11:04.615Z,16.84
2023-07-17T23:13:33.429Z,16.77
2023-07-17T23:16:03.691Z,16.77
2023-07-17T23:18:32.459Z,16.77
2023-07-17T23:21:01.298Z,16.74
2023-07-17T23:23:30.083Z,16.74
2023-07-17T23:25:58.844Z,16.71
2023-07-17T23:28:27.614Z,16.73
2023-07-17T23:30:58.751Z,16.71
2023-07-17T23:33:29.025Z,16.65
2023-07-17T23:35:59.305Z,16.72
2023-07-17T23:38:34.648Z,16.69
2023-07-17T23:41:03.573Z,15.79
2023-07-17T23:43:32.522Z,16.55
2023-07-17T23:46:01.670Z,16.55
2023-07-17T23:48:32.099Z,16.50
2023-07-17T23:51:02.153Z,16.56
2023-07-17T23:53:30.966Z,16.59
2023-07-17T23:56:03.544Z,16.66
2023-07-17T23:58:32.405Z,16.59
